Create Tblcommutelog Verified Points Advance Search
| # | Trip ID | Id Commuter | Trip Date | Trip Num | Current Lat | Current Lng | Delta Distance | Current Time | Activity | Activity Confidence | Current Speed | |
|---|---|---|---|---|---|---|---|---|---|---|---|---|
| 73101 | 250923_769852_16636925_1638 | 769852 | (not set) | (not set) | 38.961021825461 | -77.097835046067 | 1.1003 | 2025-09-23 17:06:40 | in_vehicle | 100 | 5.8740958630987 | |
| 73102 | 250923_769309_16636345_1602 | 769309 | (not set) | (not set) | 39.001970114588 | -77.486744579438 | 28.8173 | 2025-09-23 17:06:43 | in_vehicle | 100 | 7.7740127137965 | |
| 73103 | 250923_785403_16653539_1703 | 785403 | (not set) | (not set) | 38.9233423 | -77.0478253 | 0.4361 | 2025-09-23 17:06:46 | on_bicycle | 100 | 3.4913766126941 | |
| 73104 | 250923_758024_16624494_1703 | 758024 | (not set) | (not set) | 38.902618495259 | -77.00857695303 | 0.4364 | 2025-09-23 17:06:50 | on_bicycle | 100 | 2.7090579094656 | |
| 73105 | 250923_761382_16657856_1702 | 761382 | (not set) | (not set) | 38.9055848 | -77.0449746 | 0.1067 | 2025-09-23 17:07:01 | on_bicycle | 100 | 0.75996674027913 | |
| 73106 | 250923_785674_16653838_1620 | 785674 | (not set) | (not set) | 39.300083270566 | -77.338146691484 | 24.755 | 2025-09-23 17:07:04 | still | 33 | -0.44703925898772 | |
| 73107 | 250923_788956_16657708_1555 | 788956 | (not set) | (not set) | 39.008479157953 | -77.502856393179 | 50.0079 | 2025-09-23 17:07:10 | on_foot | 100 | -0.44703925898772 | |
| 73108 | 250923_766077_16632982_1658 | 766077 | (not set) | (not set) | 38.89231424904 | -77.050201982826 | 0.6677 | 2025-09-23 17:07:17 | in_vehicle | 100 | 0 | |
| 73109 | 250923_780745_16648422_1603 | 780745 | (not set) | (not set) | 38.980437959581 | -77.445029039008 | 28.6298 | 2025-09-23 17:07:23 | in_vehicle | 100 | 3.424320723846 | |
| 73110 | 250923_769852_16636925_1638 | 769852 | (not set) | (not set) | 38.962179169235 | -77.099614231396 | 1.225 | 2025-09-23 17:07:25 | in_vehicle | 100 | 2.1681404060905 | |
| 73111 | 250923_787150_16655587_1619 | 787150 | (not set) | (not set) | 39.240454049372 | -76.606913334742 | 24.8599 | 2025-09-23 17:07:28 | in_vehicle | 100 | 0.49621357747637 | |
| 73112 | 250923_789115_16657897_1659 | 789115 | (not set) | (not set) | 39.0297939 | -77.1042542 | 1.4384 | 2025-09-23 17:07:37 | still | 100 | 3.1516267758635 | |
| 73113 | 250923_782599_16657299_1644 | 782599 | (not set) | (not set) | 38.999039874194 | -77.097617414058 | 5.0704 | 2025-09-23 17:07:40 | in_vehicle | 100 | -0.44703925898772 | |
| 73114 | 250923_784389_16652315_1640 | 784389 | (not set) | (not set) | 38.888247534135 | -77.11401624172 | 5.1847 | 2025-09-23 17:07:43 | in_vehicle | 100 | 2.4453047466629 | |
| 73115 | 250923_780745_16648422_1603 | 780745 | (not set) | (not set) | 38.983053672784 | -77.447794884747 | 28.8638 | 2025-09-23 17:07:50 | in_vehicle | 100 | 7.0855722549554 | |
| 73116 | 250923_769852_16636925_1638 | 769852 | (not set) | (not set) | 38.962758714191 | -77.100523219543 | 1.2882 | 2025-09-23 17:07:51 | in_vehicle | 100 | 1.0103087253123 | |
| 73117 | 250923_758024_16624494_1703 | 758024 | (not set) | (not set) | 38.902704357687 | -77.010935486588 | 0.5646 | 2025-09-23 17:07:54 | on_bicycle | 100 | 3.4153799386662 | |
| 73118 | 250923_769852_16636925_1638 | 769852 | (not set) | (not set) | 38.963084152446 | -77.100969189372 | 1.3211 | 2025-09-23 17:07:58 | in_vehicle | 100 | 4.6357971157027 | |
| 73119 | 250923_782599_16657299_1644 | 782599 | (not set) | (not set) | 38.999041599939 | -77.097628416213 | 5.0704 | 2025-09-23 17:07:58 | in_vehicle | 100 | -0.44703925898772 | |
| 73120 | 250923_746083_16611952_1656 | 746083 | (not set) | (not set) | 38.898095237197 | -77.005605253309 | 0.7185 | 2025-09-23 17:08:02 | unknown | 100 | -0.44703925898772 |